THY6805 LTCF-LTFJ
Flight info
| Callsign | THY6805 |
|---|---|
| Flight time | 1h 48m |
| Altitude | 36000 |
| Route | LTCF/24R N0447F360 DCT RAHMA UT309 ERZ UA4 SIV UL333 BAG UG8 TOKER TOKE1G LTFJ/06R |
| Aircraft | B738/M-CDT/C |
Departure
| Time | 2026-05-04 06:58 |
|---|---|
| Airport | Kars Airport (LTCF) |
Arrival
| Time | 2026-05-04 08:46 |
|---|---|
| Airport | Istanbul Sabiha Gökçen International Airport (LTFJ) |
| Time | Latitude | Longitude | Altitude | Speed | Heading |
|---|---|---|---|---|---|
| 2026-05-04 06:44 | 40.56456 | 43.11073 | 5882 ft | 0 kts | 335° |
| 2026-05-04 06:52 | 40.56458 | 43.11072 | 5887 ft | 1 kts | 335° |
| 2026-05-04 06:52 | 40.56474 | 43.11079 | 5886 ft | 4 kts | 53° |
| 2026-05-04 06:53 | 40.56461 | 43.11115 | 5880 ft | 6 kts | 158° |
| 2026-05-04 06:53 | 40.56401 | 43.11125 | 5882 ft | 11 kts | 174° |
| 2026-05-04 06:53 | 40.56312 | 43.11157 | 5884 ft | 15 kts | 157° |
| 2026-05-04 06:53 | 40.56206 | 43.11231 | 5879 ft | 19 kts | 135° |
| 2026-05-04 06:54 | 40.56207 | 43.11407 | 5880 ft | 22 kts | 67° |
| 2026-05-04 06:54 | 40.56275 | 43.11593 | 5884 ft | 24 kts | 64° |
| 2026-05-04 06:54 | 40.56348 | 43.11797 | 5885 ft | 25 kts | 65° |
| 2026-05-04 06:54 | 40.56420 | 43.11997 | 5885 ft | 23 kts | 64° |
| 2026-05-04 06:55 | 40.56489 | 43.12185 | 5882 ft | 23 kts | 64° |
| 2026-05-04 06:55 | 40.56562 | 43.12383 | 5881 ft | 26 kts | 64° |
| 2026-05-04 06:55 | 40.56639 | 43.12594 | 5880 ft | 25 kts | 65° |
| 2026-05-04 06:55 | 40.56711 | 43.12795 | 5883 ft | 23 kts | 64° |
| 2026-05-04 06:56 | 40.56780 | 43.12984 | 5883 ft | 23 kts | 64° |
| 2026-05-04 06:57 | 40.56326 | 43.11718 | 5884 ft | 146 kts | 245° |
| 2026-05-04 06:58 | 40.55796 | 43.10361 | 5992 ft | 179 kts | 237° |
| 2026-05-04 06:58 | 40.54930 | 43.09120 | 6492 ft | 189 kts | 211° |
| 2026-05-04 06:58 | 40.53655 | 43.08453 | 6922 ft | 204 kts | 205° |
| 2026-05-04 06:58 | 40.52686 | 43.07157 | 7247 ft | 202 kts | 251° |
| 2026-05-04 06:59 | 40.52567 | 43.05343 | 7675 ft | 199 kts | 269° |
| 2026-05-04 06:59 | 40.52457 | 43.03524 | 8048 ft | 203 kts | 259° |
| 2026-05-04 06:59 | 40.52123 | 43.01708 | 8435 ft | 205 kts | 252° |
| 2026-05-04 06:59 | 40.51651 | 42.99929 | 8801 ft | 209 kts | 249° |
| 2026-05-04 07:01 | 40.51018 | 42.83776 | 10776 ft | 312 kts | 269° |
| 2026-05-04 07:01 | 40.50965 | 42.80852 | 10960 ft | 334 kts | 269° |
| 2026-05-04 07:02 | 40.50908 | 42.77716 | 11279 ft | 349 kts | 269° |
| 2026-05-04 07:02 | 40.50849 | 42.74501 | 11870 ft | 355 kts | 269° |
| 2026-05-04 07:02 | 40.50788 | 42.71246 | 12556 ft | 357 kts | 268° |
| 2026-05-04 07:02 | 40.50380 | 42.68032 | 13149 ft | 361 kts | 249° |
| 2026-05-04 07:03 | 40.49120 | 42.65177 | 13771 ft | 364 kts | 229° |
| 2026-05-04 07:03 | 40.47311 | 42.62825 | 14394 ft | 367 kts | 223° |
| 2026-05-04 07:03 | 40.45409 | 42.60566 | 14968 ft | 371 kts | 222° |
| 2026-05-04 07:03 | 40.43479 | 42.58284 | 15513 ft | 375 kts | 222° |
| 2026-05-04 07:04 | 40.41548 | 42.55960 | 16068 ft | 378 kts | 223° |
| 2026-05-04 07:04 | 40.39610 | 42.53599 | 16591 ft | 382 kts | 223° |
| 2026-05-04 07:04 | 40.37708 | 42.51141 | 17058 ft | 386 kts | 231° |
| 2026-05-04 07:04 | 40.36375 | 42.48104 | 17550 ft | 388 kts | 247° |
| 2026-05-04 07:05 | 40.35334 | 42.44810 | 18038 ft | 391 kts | 248° |
| 2026-05-04 07:05 | 40.34337 | 42.41528 | 18447 ft | 395 kts | 248° |
| 2026-05-04 07:05 | 40.33322 | 42.38173 | 18899 ft | 397 kts | 248° |
| 2026-05-04 07:05 | 40.32295 | 42.34810 | 19402 ft | 399 kts | 248° |
| 2026-05-04 07:06 | 40.30201 | 42.28050 | 20425 ft | 402 kts | 248° |
| 2026-05-04 07:06 | 40.29134 | 42.24643 | 20846 ft | 406 kts | 248° |
| 2026-05-04 07:06 | 40.28057 | 42.21216 | 21240 ft | 409 kts | 248° |
| 2026-05-04 07:07 | 40.26966 | 42.17756 | 21638 ft | 413 kts | 248° |
| 2026-05-04 07:08 | 40.19113 | 41.92978 | 24125 ft | 430 kts | 248° |
| 2026-05-04 07:09 | 40.17961 | 41.89360 | 24503 ft | 431 kts | 248° |
| 2026-05-04 07:09 | 40.16803 | 41.85729 | 24838 ft | 433 kts | 247° |
| 2026-05-04 07:09 | 40.15641 | 41.82090 | 25132 ft | 435 kts | 247° |
| 2026-05-04 07:09 | 40.14471 | 41.78427 | 25358 ft | 439 kts | 247° |
| 2026-05-04 07:10 | 40.13292 | 41.74744 | 25664 ft | 440 kts | 247° |
| 2026-05-04 07:10 | 40.12107 | 41.71048 | 25975 ft | 442 kts | 247° |
| 2026-05-04 07:12 | 40.03576 | 41.44823 | 27716 ft | 455 kts | 247° |
| 2026-05-04 07:12 | 40.02334 | 41.41025 | 28076 ft | 454 kts | 247° |
| 2026-05-04 07:12 | 40.01092 | 41.37231 | 28309 ft | 456 kts | 247° |
| 2026-05-04 07:12 | 39.99844 | 41.33422 | 28589 ft | 457 kts | 247° |
| 2026-05-04 07:13 | 39.98596 | 41.29619 | 28852 ft | 458 kts | 247° |
| 2026-05-04 07:13 | 39.97337 | 41.25789 | 29080 ft | 460 kts | 247° |
| 2026-05-04 07:13 | 39.96287 | 41.21901 | 29269 ft | 462 kts | 255° |
| 2026-05-04 07:14 | 39.95602 | 41.05161 | 30229 ft | 465 kts | 271° |
| 2026-05-04 07:14 | 39.95641 | 41.00961 | 30550 ft | 464 kts | 270° |
| 2026-05-04 07:15 | 39.95663 | 40.96749 | 30868 ft | 463 kts | 270° |
| 2026-05-04 07:15 | 39.95670 | 40.92567 | 31122 ft | 463 kts | 270° |
| 2026-05-04 07:15 | 39.95666 | 40.88356 | 31376 ft | 463 kts | 270° |
| 2026-05-04 07:15 | 39.95658 | 40.84159 | 31676 ft | 462 kts | 270° |
| 2026-05-04 07:16 | 39.95648 | 40.79972 | 32006 ft | 460 kts | 270° |
| 2026-05-04 07:16 | 39.95637 | 40.75804 | 32290 ft | 460 kts | 270° |
| 2026-05-04 07:16 | 39.95627 | 40.71624 | 32516 ft | 460 kts | 270° |
| 2026-05-04 07:16 | 39.95615 | 40.67449 | 32756 ft | 460 kts | 270° |
| 2026-05-04 07:17 | 39.95601 | 40.63276 | 33040 ft | 459 kts | 270° |
| 2026-05-04 07:17 | 39.95585 | 40.59123 | 33318 ft | 458 kts | 270° |
| 2026-05-04 07:17 | 39.95569 | 40.55025 | 33572 ft | 458 kts | 270° |
| 2026-05-04 07:17 | 39.95551 | 40.50886 | 33850 ft | 456 kts | 270° |
| 2026-05-04 07:18 | 39.95532 | 40.46758 | 34100 ft | 456 kts | 269° |
| 2026-05-04 07:18 | 39.95511 | 40.42617 | 34330 ft | 456 kts | 269° |
| 2026-05-04 07:18 | 39.95489 | 40.38492 | 34524 ft | 456 kts | 269° |
| 2026-05-04 07:18 | 39.95466 | 40.34367 | 34667 ft | 458 kts | 269° |
| 2026-05-04 07:19 | 39.95441 | 40.30195 | 34857 ft | 458 kts | 269° |
| 2026-05-04 07:19 | 39.95414 | 40.26057 | 35148 ft | 455 kts | 269° |
| 2026-05-04 07:19 | 39.95387 | 40.21937 | 35403 ft | 454 kts | 269° |
| 2026-05-04 07:19 | 39.95357 | 40.17819 | 35573 ft | 455 kts | 269° |
| 2026-05-04 07:20 | 39.95327 | 40.13702 | 35742 ft | 455 kts | 269° |
| 2026-05-04 07:20 | 39.95306 | 40.10972 | 35906 ft | 454 kts | 269° |
| 2026-05-04 07:20 | 39.95238 | 40.02727 | 35993 ft | 456 kts | 269° |
| 2026-05-04 07:22 | 39.94899 | 39.69866 | 36003 ft | 452 kts | 269° |
| 2026-05-04 07:23 | 39.94800 | 39.61662 | 36002 ft | 452 kts | 269° |
| 2026-05-04 07:23 | 39.94694 | 39.53462 | 35996 ft | 452 kts | 269° |
| 2026-05-04 07:24 | 39.94585 | 39.45262 | 35996 ft | 452 kts | 269° |
| 2026-05-04 07:24 | 39.94470 | 39.37067 | 36002 ft | 452 kts | 269° |
| 2026-05-04 07:26 | 39.93962 | 39.04218 | 36011 ft | 456 kts | 269° |
| 2026-05-04 07:27 | 39.93835 | 38.95961 | 36000 ft | 457 kts | 269° |
| 2026-05-04 07:27 | 39.93681 | 38.87650 | 35998 ft | 458 kts | 267° |
| 2026-05-04 07:28 | 39.93198 | 38.79400 | 36009 ft | 458 kts | 264° |
| 2026-05-04 07:28 | 39.92584 | 38.71136 | 35997 ft | 457 kts | 264° |
| 2026-05-04 07:29 | 39.91994 | 38.62907 | 36000 ft | 455 kts | 265° |
| 2026-05-04 07:29 | 39.91430 | 38.54745 | 35999 ft | 454 kts | 265° |
| 2026-05-04 07:30 | 39.90868 | 38.46568 | 35998 ft | 452 kts | 265° |
| 2026-05-04 07:30 | 39.90301 | 38.38414 | 35988 ft | 452 kts | 265° |
| 2026-05-04 07:31 | 39.89727 | 38.30260 | 36014 ft | 452 kts | 265° |
| 2026-05-04 07:33 | 39.87370 | 37.97587 | 35998 ft | 453 kts | 264° |
| 2026-05-04 07:33 | 39.86775 | 37.89479 | 36002 ft | 453 kts | 264° |
| 2026-05-04 07:34 | 39.86174 | 37.81324 | 36001 ft | 452 kts | 264° |
| 2026-05-04 07:34 | 39.85569 | 37.73181 | 35999 ft | 452 kts | 264° |
| 2026-05-04 07:35 | 39.84959 | 37.65049 | 36003 ft | 451 kts | 264° |
| 2026-05-04 07:35 | 39.84343 | 37.56919 | 35999 ft | 450 kts | 264° |
| 2026-05-04 07:36 | 39.83724 | 37.48817 | 35999 ft | 449 kts | 264° |
| 2026-05-04 07:38 | 39.81174 | 37.16603 | 36001 ft | 448 kts | 264° |
| 2026-05-04 07:38 | 39.80522 | 37.08545 | 36003 ft | 448 kts | 264° |
| 2026-05-04 07:39 | 39.79865 | 37.00499 | 35999 ft | 448 kts | 264° |
| 2026-05-04 07:39 | 39.79202 | 36.92448 | 35997 ft | 449 kts | 264° |
| 2026-05-04 07:40 | 39.79253 | 36.84351 | 36012 ft | 449 kts | 276° |
| 2026-05-04 07:40 | 39.80008 | 36.76274 | 36002 ft | 450 kts | 277° |
| 2026-05-04 07:41 | 39.80775 | 36.68181 | 35996 ft | 451 kts | 277° |
| 2026-05-04 07:41 | 39.81499 | 36.60071 | 35999 ft | 451 kts | 276° |
| 2026-05-04 07:42 | 39.82192 | 36.52013 | 36002 ft | 452 kts | 276° |
| 2026-05-04 07:42 | 39.82880 | 36.43885 | 36003 ft | 453 kts | 276° |
| 2026-05-04 07:43 | 39.83566 | 36.35724 | 36000 ft | 453 kts | 276° |
| 2026-05-04 07:43 | 39.84247 | 36.27572 | 36000 ft | 453 kts | 276° |
| 2026-05-04 07:44 | 39.84921 | 36.19431 | 35997 ft | 452 kts | 276° |
| 2026-05-04 07:44 | 39.85587 | 36.11320 | 36001 ft | 451 kts | 276° |
| 2026-05-04 07:45 | 39.86248 | 36.03192 | 35999 ft | 450 kts | 276° |
| 2026-05-04 07:45 | 39.86900 | 35.95113 | 36009 ft | 449 kts | 276° |
| 2026-05-04 07:46 | 39.87438 | 35.88383 | 35992 ft | 448 kts | 276° |
| 2026-05-04 07:46 | 39.88028 | 35.80956 | 36000 ft | 447 kts | 276° |
| 2026-05-04 07:47 | 39.88662 | 35.72903 | 36003 ft | 447 kts | 276° |
| 2026-05-04 07:49 | 39.91132 | 35.40789 | 35999 ft | 446 kts | 275° |
| 2026-05-04 07:49 | 39.91715 | 35.32719 | 36005 ft | 446 kts | 275° |
| 2026-05-04 07:50 | 39.92286 | 35.24652 | 36006 ft | 448 kts | 275° |
| 2026-05-04 07:50 | 39.92853 | 35.16583 | 35999 ft | 449 kts | 275° |
| 2026-05-04 07:51 | 39.93418 | 35.08505 | 36002 ft | 450 kts | 275° |
| 2026-05-04 07:51 | 39.93980 | 35.00383 | 36003 ft | 450 kts | 275° |
| 2026-05-04 07:52 | 39.94538 | 34.92244 | 36000 ft | 451 kts | 275° |
| 2026-05-04 07:52 | 39.95090 | 34.84109 | 36001 ft | 451 kts | 275° |
| 2026-05-04 07:54 | 39.97242 | 34.51536 | 35998 ft | 450 kts | 275° |
| 2026-05-04 07:55 | 39.97764 | 34.43408 | 36003 ft | 450 kts | 275° |
| 2026-05-04 07:55 | 39.98281 | 34.35281 | 35997 ft | 450 kts | 275° |
| 2026-05-04 07:56 | 39.98791 | 34.27161 | 36005 ft | 449 kts | 275° |
| 2026-05-04 07:56 | 39.99294 | 34.19068 | 36001 ft | 448 kts | 275° |
| 2026-05-04 07:57 | 39.99788 | 34.11027 | 36003 ft | 447 kts | 274° |
| 2026-05-04 07:57 | 40.00279 | 34.02943 | 35998 ft | 445 kts | 274° |
| 2026-05-04 07:58 | 40.00763 | 33.94883 | 35999 ft | 445 kts | 274° |
| 2026-05-04 07:58 | 40.01241 | 33.86839 | 36005 ft | 444 kts | 274° |
| 2026-05-04 07:59 | 40.01712 | 33.78803 | 36002 ft | 444 kts | 274° |
| 2026-05-04 07:59 | 40.02175 | 33.70807 | 35997 ft | 445 kts | 274° |
| 2026-05-04 08:00 | 40.02637 | 33.62754 | 36010 ft | 445 kts | 274° |
| 2026-05-04 08:02 | 40.04432 | 33.30408 | 35999 ft | 450 kts | 274° |
| 2026-05-04 08:02 | 40.04873 | 33.22199 | 36012 ft | 457 kts | 274° |
| 2026-05-04 08:03 | 40.05315 | 33.13867 | 36008 ft | 461 kts | 274° |
| 2026-05-04 08:03 | 40.05460 | 33.11105 | 36006 ft | 461 kts | 274° |
| 2026-05-04 08:04 | 40.06177 | 32.97268 | 35996 ft | 458 kts | 274° |
| 2026-05-04 08:04 | 40.06600 | 32.88972 | 35993 ft | 457 kts | 274° |
| 2026-05-04 08:05 | 40.07031 | 32.80710 | 35990 ft | 455 kts | 276° |
| 2026-05-04 08:05 | 40.08056 | 32.72571 | 35994 ft | 454 kts | 281° |
| 2026-05-04 08:06 | 40.09279 | 32.64499 | 36008 ft | 453 kts | 281° |
| 2026-05-04 08:06 | 40.10455 | 32.56464 | 36005 ft | 453 kts | 280° |
| 2026-05-04 08:08 | 40.14385 | 32.28127 | 35861 ft | 456 kts | 280° |
| 2026-05-04 08:08 | 40.14947 | 32.24032 | 35593 ft | 459 kts | 280° |
| 2026-05-04 08:10 | 40.18250 | 31.92705 | 33312 ft | 453 kts | 275° |
| 2026-05-04 08:11 | 40.18541 | 31.88620 | 33011 ft | 450 kts | 275° |
| 2026-05-04 08:11 | 40.19382 | 31.80472 | 32430 ft | 458 kts | 279° |
| 2026-05-04 08:11 | 40.19898 | 31.76331 | 32137 ft | 461 kts | 279° |
| 2026-05-04 08:12 | 40.20419 | 31.72199 | 31831 ft | 458 kts | 279° |
| 2026-05-04 08:12 | 40.20929 | 31.68110 | 31529 ft | 454 kts | 279° |
| 2026-05-04 08:12 | 40.21419 | 31.64093 | 31232 ft | 452 kts | 279° |
| 2026-05-04 08:12 | 40.21918 | 31.59932 | 30942 ft | 462 kts | 279° |
| 2026-05-04 08:13 | 40.22405 | 31.55808 | 30656 ft | 466 kts | 278° |
| 2026-05-04 08:13 | 40.22896 | 31.51611 | 30350 ft | 463 kts | 278° |
| 2026-05-04 08:13 | 40.23379 | 31.47465 | 30049 ft | 464 kts | 278° |
| 2026-05-04 08:13 | 40.23869 | 31.43238 | 29761 ft | 471 kts | 278° |
| 2026-05-04 08:14 | 40.24362 | 31.38981 | 29451 ft | 474 kts | 278° |
| 2026-05-04 08:14 | 40.24852 | 31.34730 | 29093 ft | 468 kts | 278° |
| 2026-05-04 08:14 | 40.25333 | 31.30548 | 28739 ft | 461 kts | 278° |
| 2026-05-04 08:16 | 40.28392 | 31.02056 | 26403 ft | 445 kts | 276° |
| 2026-05-04 08:16 | 40.28726 | 30.98043 | 26096 ft | 442 kts | 276° |
| 2026-05-04 08:16 | 40.29058 | 30.94036 | 25794 ft | 439 kts | 276° |
| 2026-05-04 08:17 | 40.29386 | 30.90071 | 25498 ft | 437 kts | 276° |
| 2026-05-04 08:17 | 40.29713 | 30.86121 | 25199 ft | 435 kts | 276° |
| 2026-05-04 08:17 | 40.30036 | 30.82201 | 24897 ft | 433 kts | 276° |
| 2026-05-04 08:17 | 40.30360 | 30.78278 | 24597 ft | 431 kts | 276° |
| 2026-05-04 08:19 | 40.32549 | 30.51342 | 22639 ft | 420 kts | 276° |
| 2026-05-04 08:19 | 40.32853 | 30.47543 | 22364 ft | 419 kts | 276° |
| 2026-05-04 08:20 | 40.33154 | 30.43758 | 22088 ft | 418 kts | 276° |
| 2026-05-04 08:20 | 40.33453 | 30.39977 | 21813 ft | 416 kts | 276° |
| 2026-05-04 08:20 | 40.33750 | 30.36220 | 21541 ft | 415 kts | 276° |
| 2026-05-04 08:20 | 40.34046 | 30.32448 | 21265 ft | 413 kts | 276° |
| 2026-05-04 08:21 | 40.34339 | 30.28708 | 20991 ft | 411 kts | 276° |
| 2026-05-04 08:21 | 40.34629 | 30.24978 | 20718 ft | 409 kts | 276° |
| 2026-05-04 08:21 | 40.34916 | 30.21284 | 20435 ft | 406 kts | 276° |
| 2026-05-04 08:21 | 40.35200 | 30.17607 | 20166 ft | 404 kts | 276° |
| 2026-05-04 08:22 | 40.35478 | 30.14001 | 19897 ft | 401 kts | 276° |
| 2026-05-04 08:22 | 40.35755 | 30.10382 | 19615 ft | 398 kts | 276° |
| 2026-05-04 08:24 | 40.37626 | 29.85556 | 17903 ft | 385 kts | 275° |
| 2026-05-04 08:24 | 40.37885 | 29.82066 | 17683 ft | 385 kts | 275° |
| 2026-05-04 08:24 | 40.38143 | 29.78569 | 17458 ft | 385 kts | 275° |
| 2026-05-04 08:24 | 40.38399 | 29.75083 | 17226 ft | 385 kts | 275° |
| 2026-05-04 08:25 | 40.38657 | 29.71573 | 17013 ft | 385 kts | 275° |
| 2026-05-04 08:25 | 40.38912 | 29.68078 | 16790 ft | 384 kts | 275° |
| 2026-05-04 08:25 | 40.39164 | 29.64595 | 16560 ft | 383 kts | 275° |
| 2026-05-04 08:25 | 40.39415 | 29.61126 | 16332 ft | 381 kts | 275° |
| 2026-05-04 08:26 | 40.39664 | 29.57674 | 16111 ft | 379 kts | 275° |
| 2026-05-04 08:27 | 40.41306 | 29.34479 | 14500 ft | 341 kts | 275° |
| 2026-05-04 08:28 | 40.41520 | 29.31411 | 14271 ft | 334 kts | 275° |
| 2026-05-04 08:28 | 40.41729 | 29.28404 | 14039 ft | 327 kts | 275° |
| 2026-05-04 08:28 | 40.41933 | 29.25460 | 13812 ft | 321 kts | 275° |
| 2026-05-04 08:28 | 40.42132 | 29.22579 | 13574 ft | 315 kts | 275° |
| 2026-05-04 08:29 | 40.42325 | 29.19763 | 13349 ft | 310 kts | 275° |
| 2026-05-04 08:29 | 40.42517 | 29.16946 | 13136 ft | 304 kts | 275° |
| 2026-05-04 08:29 | 40.42701 | 29.14248 | 12933 ft | 298 kts | 275° |
| 2026-05-04 08:31 | 40.44138 | 28.96130 | 11556 ft | 277 kts | 282° |
| 2026-05-04 08:33 | 40.48454 | 28.79717 | 10340 ft | 275 kts | 299° |
| 2026-05-04 08:33 | 40.49376 | 28.77517 | 10169 ft | 275 kts | 298° |
| 2026-05-04 08:35 | 40.58711 | 28.65006 | 8726 ft | 270 kts | 331° |
| 2026-05-04 08:35 | 40.60383 | 28.63880 | 8505 ft | 269 kts | 333° |
| 2026-05-04 08:35 | 40.62050 | 28.62780 | 8280 ft | 268 kts | 334° |
| 2026-05-04 08:35 | 40.63842 | 28.62194 | 8025 ft | 268 kts | 1° |
| 2026-05-04 08:37 | 40.69606 | 28.73399 | 6708 ft | 266 kts | 71° |
| 2026-05-04 08:37 | 40.70214 | 28.75707 | 6491 ft | 266 kts | 70° |
| 2026-05-04 08:37 | 40.70824 | 28.78013 | 6267 ft | 266 kts | 70° |
| 2026-05-04 08:38 | 40.71435 | 28.80321 | 6042 ft | 266 kts | 70° |
| 2026-05-04 08:38 | 40.72047 | 28.82627 | 5824 ft | 266 kts | 70° |
| 2026-05-04 08:38 | 40.72657 | 28.84930 | 5602 ft | 266 kts | 70° |
| 2026-05-04 08:40 | 40.76436 | 28.99242 | 4148 ft | 251 kts | 71° |
| 2026-05-04 08:40 | 40.77005 | 29.01378 | 3955 ft | 242 kts | 68° |
| 2026-05-04 08:40 | 40.77791 | 29.03299 | 3722 ft | 234 kts | 57° |
| 2026-05-04 08:41 | 40.78668 | 29.05053 | 3503 ft | 225 kts | 56° |
| 2026-05-04 08:41 | 40.79512 | 29.06740 | 3261 ft | 217 kts | 56° |
| 2026-05-04 08:41 | 40.80326 | 29.08390 | 3026 ft | 210 kts | 56° |
| 2026-05-04 08:41 | 40.81045 | 29.10025 | 2812 ft | 203 kts | 63° |
| 2026-05-04 08:42 | 40.81656 | 29.11678 | 2589 ft | 195 kts | 64° |
| 2026-05-04 08:42 | 40.82227 | 29.13242 | 2370 ft | 184 kts | 64° |
| 2026-05-04 08:42 | 40.82766 | 29.14721 | 2160 ft | 172 kts | 64° |
| 2026-05-04 08:42 | 40.83266 | 29.16086 | 2011 ft | 155 kts | 64° |
| 2026-05-04 08:43 | 40.83721 | 29.17328 | 1838 ft | 149 kts | 64° |
| 2026-05-04 08:43 | 40.84162 | 29.18526 | 1632 ft | 147 kts | 64° |
| 2026-05-04 08:43 | 40.84609 | 29.19741 | 1432 ft | 147 kts | 64° |
| 2026-05-04 08:43 | 40.85055 | 29.20953 | 1232 ft | 147 kts | 64° |
| 2026-05-04 08:44 | 40.85502 | 29.22163 | 1032 ft | 146 kts | 64° |
| 2026-05-04 08:44 | 40.85947 | 29.23369 | 825 ft | 146 kts | 64° |
| 2026-05-04 08:46 | 40.88992 | 29.31610 | 308 ft | 103 kts | 62° |
| 2026-05-04 08:46 | 40.89177 | 29.32115 | 305 ft | 22 kts | 66° |
| 2026-05-04 08:46 | 40.89242 | 29.32291 | 302 ft | 21 kts | 58° |
| 2026-05-04 08:46 | 40.89350 | 29.32412 | 305 ft | 20 kts | 27° |
| 2026-05-04 08:47 | 40.89474 | 29.32448 | 306 ft | 20 kts | 325° |
| 2026-05-04 08:47 | 40.89573 | 29.32327 | 306 ft | 19 kts | 316° |
| 2026-05-04 08:47 | 40.89650 | 29.32192 | 306 ft | 18 kts | 290° |
| 2026-05-04 08:47 | 40.89651 | 29.32029 | 308 ft | 18 kts | 249° |
| 2026-05-04 08:48 | 40.89601 | 29.31892 | 306 ft | 11 kts | 244° |
| 2026-05-04 08:48 | 40.89574 | 29.31819 | 306 ft | 7 kts | 243° |
| 2026-05-04 08:48 | 40.89557 | 29.31773 | 309 ft | 5 kts | 244° |
| 2026-05-04 08:48 | 40.89549 | 29.31750 | 306 ft | 0 kts | 244° |